sensor_id;sensor_type;location;lat;lon;timestamp;temperature;humidity
21928;DHT22;11128;51.096;17.190;2022-12-04T00:04:21;1.80;99.90
21928;DHT22;11128;51.096;17.190;2022-12-04T00:09:23;2.20;99.90
21928;DHT22;11128;51.096;17.190;2022-12-04T00:14:24;1.90;99.90
21928;DHT22;11128;51.096;17.190;2022-12-04T00:19:25;2.00;99.90
21928;DHT22;11128;51.096;17.190;2022-12-04T00:24:27;1.90;99.90
21928;DHT22;11128;51.096;17.190;2022-12-04T00:29:28;1.90;99.90
21928;DHT22;11128;51.096;17.190;2022-12-04T00:34:29;2.00;99.90
21928;DHT22;11128;51.096;17.190;2022-12-04T00:39:31;2.00;99.90
21928;DHT22;11128;51.096;17.190;2022-12-04T00:44:32;2.30;99.90
21928;DHT22;11128;51.096;17.190;2022-12-04T00:49:34;2.10;99.90
21928;DHT22;11128;51.096;17.190;2022-12-04T00:54:35;2.20;99.90
21928;DHT22;11128;51.096;17.190;2022-12-04T00:59:36;2.10;99.90
21928;DHT22;11128;51.096;17.190;2022-12-04T01:04:38;2.60;99.90
21928;DHT22;11128;51.096;17.190;2022-12-04T01:09:39;1.90;99.90
21928;DHT22;11128;51.096;17.190;2022-12-04T01:14:40;3.00;99.90
21928;DHT22;11128;51.096;17.190;2022-12-04T01:19:42;1.90;99.90
21928;DHT22;11128;51.096;17.190;2022-12-04T01:24:43;1.80;99.90
21928;DHT22;11128;51.096;17.190;2022-12-04T01:29:44;1.80;99.90
21928;DHT22;11128;51.096;17.190;2022-12-04T01:34:46;1.70;99.90
21928;DHT22;11128;51.096;17.190;2022-12-04T01:39:47;1.70;99.90
21928;DHT22;11128;51.096;17.190;2022-12-04T01:50:28;1.60;99.90
21928;DHT22;11128;51.096;17.190;2022-12-04T01:55:30;2.00;99.90
21928;DHT22;11128;51.096;17.190;2022-12-04T02:00:32;1.30;99.90
21928;DHT22;11128;51.096;17.190;2022-12-04T02:05:33;1.10;99.90
21928;DHT22;11128;51.096;17.190;2022-12-04T02:10:49;1.00;99.90
21928;DHT22;11128;51.096;17.190;2022-12-04T02:31:39;0.50;99.90
21928;DHT22;11128;51.096;17.190;2022-12-04T02:37:23;0.40;99.90
21928;DHT22;11128;51.096;17.190;2022-12-04T02:42:39;0.40;99.90
21928;DHT22;11128;51.096;17.190;2022-12-04T02:47:43;0.80;99.90
21928;DHT22;11128;51.096;17.190;2022-12-04T02:52:52;0.40;99.90
21928;DHT22;11128;51.096;17.190;2022-12-04T02:58:04;0.50;99.90
21928;DHT22;11128;51.096;17.190;2022-12-04T03:03:14;0.40;99.90
21928;DHT22;11128;51.096;17.190;2022-12-04T03:08:20;0.30;99.90
21928;DHT22;11128;51.096;17.190;2022-12-04T03:13:32;0.20;99.90
21928;DHT22;11128;51.096;17.190;2022-12-04T03:18:42;0.10;99.90
21928;DHT22;11128;51.096;17.190;2022-12-04T03:23:56;0.10;99.90
21928;DHT22;11128;51.096;17.190;2022-12-04T03:29:07;0.10;99.90
21928;DHT22;11128;51.096;17.190;2022-12-04T03:34:12;0.10;99.90
21928;DHT22;11128;51.096;17.190;2022-12-04T03:39:24;0.20;99.90
21928;DHT22;11128;51.096;17.190;2022-12-04T03:44:39;0.00;99.90
21928;DHT22;11128;51.096;17.190;2022-12-04T03:50:10;0.10;99.90
21928;DHT22;11128;51.096;17.190;2022-12-04T03:55:29;0.30;99.90
21928;DHT22;11128;51.096;17.190;2022-12-04T04:00:36;0.10;99.90
21928;DHT22;11128;51.096;17.190;2022-12-04T04:05:43;0.60;99.90
21928;DHT22;11128;51.096;17.190;2022-12-04T04:10:46;0.50;99.90
21928;DHT22;11128;51.096;17.190;2022-12-04T04:15:51;0.40;99.90
21928;DHT22;11128;51.096;17.190;2022-12-04T04:21:12;0.50;99.90
21928;DHT22;11128;51.096;17.190;2022-12-04T04:26:38;0.50;99.90
21928;DHT22;11128;51.096;17.190;2022-12-04T04:42:25;0.60;99.90
21928;DHT22;11128;51.096;17.190;2022-12-04T04:47:49;0.60;99.90
21928;DHT22;11128;51.096;17.190;2022-12-04T04:52:57;0.60;99.90
21928;DHT22;11128;51.096;17.190;2022-12-04T04:58:11;0.60;99.90
21928;DHT22;11128;51.096;17.190;2022-12-04T05:03:12;0.60;99.90
21928;DHT22;11128;51.096;17.190;2022-12-04T05:08:14;1.30;99.90
21928;DHT22;11128;51.096;17.190;2022-12-04T05:13:16;0.60;99.90
21928;DHT22;11128;51.096;17.190;2022-12-04T05:18:17;0.70;99.90
21928;DHT22;11128;51.096;17.190;2022-12-04T05:23:19;0.80;99.90
21928;DHT22;11128;51.096;17.190;2022-12-04T05:28:20;0.80;99.90
21928;DHT22;11128;51.096;17.190;2022-12-04T05:33:21;0.80;99.90
21928;DHT22;11128;51.096;17.190;2022-12-04T05:38:23;0.80;99.90
21928;DHT22;11128;51.096;17.190;2022-12-04T05:43:24;0.90;99.90
21928;DHT22;11128;51.096;17.190;2022-12-04T05:48:25;1.00;99.90
21928;DHT22;11128;51.096;17.190;2022-12-04T05:53:27;0.90;99.90
21928;DHT22;11128;51.096;17.190;2022-12-04T05:58:28;0.90;99.90
21928;DHT22;11128;51.096;17.190;2022-12-04T06:03:30;0.90;99.90
21928;DHT22;11128;51.096;17.190;2022-12-04T06:08:31;0.90;99.90
21928;DHT22;11128;51.096;17.190;2022-12-04T06:13:32;1.10;99.90
21928;DHT22;11128;51.096;17.190;2022-12-04T06:18:33;0.80;99.90
21928;DHT22;11128;51.096;17.190;2022-12-04T06:23:34;0.70;99.90
21928;DHT22;11128;51.096;17.190;2022-12-04T06:28:36;0.60;99.90
21928;DHT22;11128;51.096;17.190;2022-12-04T06:33:38;0.60;99.90
21928;DHT22;11128;51.096;17.190;2022-12-04T06:38:39;0.80;99.90
21928;DHT22;11128;51.096;17.190;2022-12-04T06:43:42;1.10;99.90
21928;DHT22;11128;51.096;17.190;2022-12-04T06:48:44;0.70;99.90
21928;DHT22;11128;51.096;17.190;2022-12-04T06:53:45;0.80;99.90
21928;DHT22;11128;51.096;17.190;2022-12-04T06:58:48;0.90;99.90
21928;DHT22;11128;51.096;17.190;2022-12-04T07:03:50;1.30;99.90
21928;DHT22;11128;51.096;17.190;2022-12-04T07:08:59;0.90;99.90
21928;DHT22;11128;51.096;17.190;2022-12-04T07:14:01;1.00;99.90
21928;DHT22;11128;51.096;17.190;2022-12-04T07:19:02;1.10;99.90
21928;DHT22;11128;51.096;17.190;2022-12-04T07:24:04;1.20;99.90
21928;DHT22;11128;51.096;17.190;2022-12-04T07:29:06;1.30;99.90
21928;DHT22;11128;51.096;17.190;2022-12-04T07:34:07;1.50;99.90
21928;DHT22;11128;51.096;17.190;2022-12-04T07:39:08;1.70;99.90
21928;DHT22;11128;51.096;17.190;2022-12-04T07:44:10;2.00;99.90
21928;DHT22;11128;51.096;17.190;2022-12-04T07:49:11;2.10;99.90
21928;DHT22;11128;51.096;17.190;2022-12-04T07:54:13;2.90;99.90
21928;DHT22;11128;51.096;17.190;2022-12-04T07:59:15;2.30;99.90
21928;DHT22;11128;51.096;17.190;2022-12-04T08:04:16;2.50;99.90
21928;DHT22;11128;51.096;17.190;2022-12-04T08:09:17;2.80;99.90
21928;DHT22;11128;51.096;17.190;2022-12-04T08:14:18;2.90;99.90
21928;DHT22;11128;51.096;17.190;2022-12-04T08:19:20;3.10;99.90
21928;DHT22;11128;51.096;17.190;2022-12-04T08:24:22;3.30;99.90
21928;DHT22;11128;51.096;17.190;2022-12-04T08:29:23;4.30;99.90
21928;DHT22;11128;51.096;17.190;2022-12-04T08:34:25;3.80;99.90
21928;DHT22;11128;51.096;17.190;2022-12-04T08:39:26;4.00;99.90
21928;DHT22;11128;51.096;17.190;2022-12-04T08:44:28;4.10;99.90
21928;DHT22;11128;51.096;17.190;2022-12-04T08:49:29;4.40;99.90
21928;DHT22;11128;51.096;17.190;2022-12-04T08:54:31;4.60;99.90
21928;DHT22;11128;51.096;17.190;2022-12-04T08:59:32;4.80;99.90
21928;DHT22;11128;51.096;17.190;2022-12-04T09:04:34;5.00;99.90
21928;DHT22;11128;51.096;17.190;2022-12-04T09:09:35;5.40;99.90
21928;DHT22;11128;51.096;17.190;2022-12-04T09:14:37;5.50;99.90
21928;DHT22;11128;51.096;17.190;2022-12-04T09:19:39;5.60;99.90
21928;DHT22;11128;51.096;17.190;2022-12-04T09:24:40;6.10;99.90
21928;DHT22;11128;51.096;17.190;2022-12-04T09:29:42;6.20;99.90
21928;DHT22;11128;51.096;17.190;2022-12-04T09:34:46;6.50;99.90
21928;DHT22;11128;51.096;17.190;2022-12-04T09:39:48;6.70;99.90
21928;DHT22;11128;51.096;17.190;2022-12-04T10:00:32;7.10;99.90
21928;DHT22;11128;51.096;17.190;2022-12-04T10:06:10;7.10;99.90
21928;DHT22;11128;51.096;17.190;2022-12-04T10:22:24;7.90;99.90
21928;DHT22;11128;51.096;17.190;2022-12-04T10:32:36;8.20;99.90
21928;DHT22;11128;51.096;17.190;2022-12-04T10:37:40;8.20;99.90
21928;DHT22;11128;51.096;17.190;2022-12-04T10:42:49;8.40;99.90
21928;DHT22;11128;51.096;17.190;2022-12-04T10:47:53;8.70;99.90
21928;DHT22;11128;51.096;17.190;2022-12-04T10:52:55;8.80;99.90
21928;DHT22;11128;51.096;17.190;2022-12-04T10:57:57;9.40;98.80
21928;DHT22;11128;51.096;17.190;2022-12-04T11:03:01;9.70;97.80
21928;DHT22;11128;51.096;17.190;2022-12-04T11:08:04;10.60;92.30
21928;DHT22;11128;51.096;17.190;2022-12-04T11:13:17;11.10;82.90
21928;DHT22;11128;51.096;17.190;2022-12-04T11:18:21;11.40;82.20
21928;DHT22;11128;51.096;17.190;2022-12-04T11:23:23;11.60;71.50
21928;DHT22;11128;51.096;17.190;2022-12-04T11:28:28;11.60;71.40
21928;DHT22;11128;51.096;17.190;2022-12-04T11:33:59;11.70;67.60
21928;DHT22;11128;51.096;17.190;2022-12-04T11:44:25;12.00;65.60
21928;DHT22;11128;51.096;17.190;2022-12-04T11:49:28;12.50;61.40
21928;DHT22;11128;51.096;17.190;2022-12-04T11:54:46;13.00;60.40
21928;DHT22;11128;51.096;17.190;2022-12-04T12:00:19;12.60;55.40
21928;DHT22;11128;51.096;17.190;2022-12-04T12:16:37;10.30;88.90
21928;DHT22;11128;51.096;17.190;2022-12-04T12:21:56;9.80;94.50
21928;DHT22;11128;51.096;17.190;2022-12-04T12:37:53;9.50;99.90
21928;DHT22;11128;51.096;17.190;2022-12-04T12:43:20;10.00;98.80
21928;DHT22;11128;51.096;17.190;2022-12-04T12:48:39;10.80;92.20
21928;DHT22;11128;51.096;17.190;2022-12-04T12:53:46;11.50;85.80
21928;DHT22;11128;51.096;17.190;2022-12-04T12:58:56;11.80;77.70
21928;DHT22;11128;51.096;17.190;2022-12-04T13:04:07;11.60;73.70
21928;DHT22;11128;51.096;17.190;2022-12-04T13:09:19;11.50;73.60
21928;DHT22;11128;51.096;17.190;2022-12-04T13:14:27;11.10;79.90
21928;DHT22;11128;51.096;17.190;2022-12-04T13:19:33;10.60;91.30
21928;DHT22;11128;51.096;17.190;2022-12-04T13:40:52;9.50;99.40
21928;DHT22;11128;51.096;17.190;2022-12-04T13:45:59;8.90;99.90
21928;DHT22;11128;51.096;17.190;2022-12-04T13:51:03;8.60;99.90
21928;DHT22;11128;51.096;17.190;2022-12-04T13:56:07;8.20;99.90
21928;DHT22;11128;51.096;17.190;2022-12-04T14:01:26;7.90;99.90
21928;DHT22;11128;51.096;17.190;2022-12-04T14:06:38;7.60;99.90
21928;DHT22;11128;51.096;17.190;2022-12-04T14:11:44;7.40;99.90
21928;DHT22;11128;51.096;17.190;2022-12-04T14:16:47;7.10;99.90
21928;DHT22;11128;51.096;17.190;2022-12-04T14:21:48;6.80;99.90
21928;DHT22;11128;51.096;17.190;2022-12-04T14:26:51;6.60;99.90
21928;DHT22;11128;51.096;17.190;2022-12-04T14:31:55;6.40;99.90
21928;DHT22;11128;51.096;17.190;2022-12-04T14:36:58;6.30;99.90
21928;DHT22;11128;51.096;17.190;2022-12-04T14:47:28;5.70;99.90
21928;DHT22;11128;51.096;17.190;2022-12-04T15:02:59;5.20;99.90
21928;DHT22;11128;51.096;17.190;2022-12-04T15:08:04;4.80;99.90
21928;DHT22;11128;51.096;17.190;2022-12-04T15:13:06;4.70;99.90
21928;DHT22;11128;51.096;17.190;2022-12-04T15:28:19;4.60;99.90
21928;DHT22;11128;51.096;17.190;2022-12-04T15:33:25;4.40;99.90
21928;DHT22;11128;51.096;17.190;2022-12-04T15:38:27;4.30;99.90
21928;DHT22;11128;51.096;17.190;2022-12-04T15:43:41;4.20;99.90
21928;DHT22;11128;51.096;17.190;2022-12-04T15:48:43;4.00;99.90
21928;DHT22;11128;51.096;17.190;2022-12-04T15:53:45;4.00;99.90
21928;DHT22;11128;51.096;17.190;2022-12-04T15:58:59;3.90;99.90
21928;DHT22;11128;51.096;17.190;2022-12-04T16:04:02;3.80;99.90
21928;DHT22;11128;51.096;17.190;2022-12-04T16:09:23;3.60;99.90
21928;DHT22;11128;51.096;17.190;2022-12-04T16:14:25;3.60;99.90
21928;DHT22;11128;51.096;17.190;2022-12-04T16:19:32;3.60;99.90
21928;DHT22;11128;51.096;17.190;2022-12-04T16:24:35;3.50;99.90
21928;DHT22;11128;51.096;17.190;2022-12-04T16:29:36;3.50;99.90
21928;DHT22;11128;51.096;17.190;2022-12-04T16:34:38;3.40;99.90
21928;DHT22;11128;51.096;17.190;2022-12-04T16:39:40;3.30;99.90
21928;DHT22;11128;51.096;17.190;2022-12-04T16:44:41;3.30;99.90
21928;DHT22;11128;51.096;17.190;2022-12-04T16:49:44;3.10;99.90
21928;DHT22;11128;51.096;17.190;2022-12-04T16:54:46;3.30;99.90
21928;DHT22;11128;51.096;17.190;2022-12-04T16:59:47;3.00;99.90
21928;DHT22;11128;51.096;17.190;2022-12-04T17:04:48;3.00;99.90
21928;DHT22;11128;51.096;17.190;2022-12-04T17:09:50;3.00;99.90
21928;DHT22;11128;51.096;17.190;2022-12-04T17:14:52;2.90;99.90
21928;DHT22;11128;51.096;17.190;2022-12-04T17:19:53;2.90;99.90
21928;DHT22;11128;51.096;17.190;2022-12-04T17:24:54;3.00;99.90
21928;DHT22;11128;51.096;17.190;2022-12-04T17:29:56;2.80;99.90
21928;DHT22;11128;51.096;17.190;2022-12-04T17:35:00;2.70;99.90
21928;DHT22;11128;51.096;17.190;2022-12-04T17:40:05;2.70;99.90
21928;DHT22;11128;51.096;17.190;2022-12-04T17:45:08;2.60;99.90
21928;DHT22;11128;51.096;17.190;2022-12-04T17:50:11;2.60;99.90
21928;DHT22;11128;51.096;17.190;2022-12-04T17:55:12;2.50;99.90
21928;DHT22;11128;51.096;17.190;2022-12-04T18:00:14;2.50;99.90
21928;DHT22;11128;51.096;17.190;2022-12-04T18:05:16;2.40;99.90
21928;DHT22;11128;51.096;17.190;2022-12-04T18:10:17;2.60;99.90
21928;DHT22;11128;51.096;17.190;2022-12-04T18:15:19;2.40;99.90
21928;DHT22;11128;51.096;17.190;2022-12-04T18:20:21;2.40;99.90
21928;DHT22;11128;51.096;17.190;2022-12-04T18:25:23;3.20;99.90
21928;DHT22;11128;51.096;17.190;2022-12-04T18:30:25;2.40;99.90
21928;DHT22;11128;51.096;17.190;2022-12-04T18:35:27;2.50;99.90
21928;DHT22;11128;51.096;17.190;2022-12-04T18:40:29;2.50;99.90
21928;DHT22;11128;51.096;17.190;2022-12-04T18:45:30;2.60;99.90
21928;DHT22;11128;51.096;17.190;2022-12-04T18:50:31;3.60;99.90
21928;DHT22;11128;51.096;17.190;2022-12-04T18:55:36;2.70;99.90
21928;DHT22;11128;51.096;17.190;2022-12-04T19:00:38;2.70;99.90
21928;DHT22;11128;51.096;17.190;2022-12-04T19:05:49;2.70;99.90
21928;DHT22;11128;51.096;17.190;2022-12-04T19:10:50;2.80;99.90
21928;DHT22;11128;51.096;17.190;2022-12-04T19:15:52;2.80;99.90
21928;DHT22;11128;51.096;17.190;2022-12-04T19:21:00;2.80;99.90
21928;DHT22;11128;51.096;17.190;2022-12-04T19:26:05;2.80;99.90
21928;DHT22;11128;51.096;17.190;2022-12-04T19:31:23;2.80;99.90
21928;DHT22;11128;51.096;17.190;2022-12-04T19:36:27;2.80;99.90
21928;DHT22;11128;51.096;17.190;2022-12-04T19:41:30;2.80;99.90
21928;DHT22;11128;51.096;17.190;2022-12-04T19:46:34;2.90;99.90
21928;DHT22;11128;51.096;17.190;2022-12-04T19:51:38;2.90;99.90
21928;DHT22;11128;51.096;17.190;2022-12-04T19:56:41;2.90;99.90
21928;DHT22;11128;51.096;17.190;2022-12-04T20:01:48;2.90;99.90
21928;DHT22;11128;51.096;17.190;2022-12-04T20:06:50;2.90;99.90
21928;DHT22;11128;51.096;17.190;2022-12-04T20:11:51;2.80;99.90
21928;DHT22;11128;51.096;17.190;2022-12-04T20:16:53;2.90;99.90
21928;DHT22;11128;51.096;17.190;2022-12-04T20:21:55;2.90;99.90
21928;DHT22;11128;51.096;17.190;2022-12-04T20:26:57;2.90;99.90
21928;DHT22;11128;51.096;17.190;2022-12-04T20:31:59;3.30;99.90
21928;DHT22;11128;51.096;17.190;2022-12-04T20:37:01;2.90;99.90
21928;DHT22;11128;51.096;17.190;2022-12-04T20:42:02;2.80;99.90
21928;DHT22;11128;51.096;17.190;2022-12-04T20:47:04;2.80;99.90
21928;DHT22;11128;51.096;17.190;2022-12-04T20:52:05;2.80;99.90
21928;DHT22;11128;51.096;17.190;2022-12-04T20:57:06;2.80;99.90
21928;DHT22;11128;51.096;17.190;2022-12-04T21:02:09;2.80;99.90
21928;DHT22;11128;51.096;17.190;2022-12-04T21:07:11;2.80;99.90
21928;DHT22;11128;51.096;17.190;2022-12-04T21:12:12;3.40;99.90
21928;DHT22;11128;51.096;17.190;2022-12-04T21:17:32;2.80;99.90
21928;DHT22;11128;51.096;17.190;2022-12-04T21:22:34;2.80;99.90
21928;DHT22;11128;51.096;17.190;2022-12-04T21:27:35;2.80;99.90
21928;DHT22;11128;51.096;17.190;2022-12-04T21:32:36;2.80;99.90
21928;DHT22;11128;51.096;17.190;2022-12-04T21:37:38;2.90;99.90
21928;DHT22;11128;51.096;17.190;2022-12-04T21:42:39;2.50;99.90
21928;DHT22;11128;51.096;17.190;2022-12-04T21:47:41;2.90;99.90
21928;DHT22;11128;51.096;17.190;2022-12-04T21:52:43;2.90;99.90
21928;DHT22;11128;51.096;17.190;2022-12-04T21:57:44;2.80;99.90
21928;DHT22;11128;51.096;17.190;2022-12-04T22:02:45;2.80;99.90
21928;DHT22;11128;51.096;17.190;2022-12-04T22:07:47;3.20;99.90
21928;DHT22;11128;51.096;17.190;2022-12-04T22:12:48;3.30;99.90
21928;DHT22;11128;51.096;17.190;2022-12-04T22:17:50;2.80;99.90
21928;DHT22;11128;51.096;17.190;2022-12-04T22:22:51;2.80;99.90
21928;DHT22;11128;51.096;17.190;2022-12-04T22:27:52;3.70;99.90
21928;DHT22;11128;51.096;17.190;2022-12-04T22:32:54;2.90;99.90
21928;DHT22;11128;51.096;17.190;2022-12-04T22:37:55;2.80;99.90
21928;DHT22;11128;51.096;17.190;2022-12-04T22:42:56;2.80;99.90
21928;DHT22;11128;51.096;17.190;2022-12-04T22:47:58;2.80;99.90
21928;DHT22;11128;51.096;17.190;2022-12-04T22:52:59;2.80;99.90
21928;DHT22;11128;51.096;17.190;2022-12-04T22:58:00;3.10;99.90
21928;DHT22;11128;51.096;17.190;2022-12-04T23:03:01;3.30;99.90
21928;DHT22;11128;51.096;17.190;2022-12-04T23:08:03;2.70;99.90
21928;DHT22;11128;51.096;17.190;2022-12-04T23:13:04;2.80;99.90
21928;DHT22;11128;51.096;17.190;2022-12-04T23:18:06;2.80;99.90
21928;DHT22;11128;51.096;17.190;2022-12-04T23:23:07;2.80;99.90
21928;DHT22;11128;51.096;17.190;2022-12-04T23:28:08;2.80;99.90
21928;DHT22;11128;51.096;17.190;2022-12-04T23:33:10;3.20;99.90
21928;DHT22;11128;51.096;17.190;2022-12-04T23:38:11;2.80;99.90
21928;DHT22;11128;51.096;17.190;2022-12-04T23:43:13;2.80;99.90
21928;DHT22;11128;51.096;17.190;2022-12-04T23:48:15;2.80;99.90
21928;DHT22;11128;51.096;17.190;2022-12-04T23:53:17;2.80;99.90
21928;DHT22;11128;51.096;17.190;2022-12-04T23:58:18;2.80;99.90
